This is the latest recevied weather packets stored in our database for station/object kj4yre. If no packets are shown the sender has not sent any weather packets the latest 10 day(s).
| Time | Temp. | Humidity | Pressure | Rain* | Wind** | Luminosity | Snow |
|---|---|---|---|---|---|---|---|
| 1787831537 | 23.89° C | 94% | 1016.1 hPa | 0 mm | - | - | - |
| 1787829436 | 22.78° C | 98% | 1016.1 hPa | 0 mm | - | - | - |
| 1787829135 | 22.22° C | 98% | 1016 hPa | 0 mm | - | - | - |
| 1787828836 | 22.22° C | 99% | 1016 hPa | 0 mm | - | - | - |
| 1787825536 | 21.67° C | 98% | 1015.9 hPa | 0 mm | - | - | - |
| 1787822536 | 22.22° C | 96% | 1015.7 hPa | 0 mm | - | - | - |
| 1787819535 | 22.78° C | 95% | 1015.7 hPa | 0 mm | - | - | - |
| 1787818936 | 22.78° C | 95% | 1015.7 hPa | 0 mm | - | - | - |
| 1787817436 | 22.78° C | 95% | 1015.8 hPa | 0 mm | - | - | - |
| 1787817135 | 22.78° C | 95% | 1015.8 hPa | 0 mm | - | - | - |
| 1787815636 | 22.78° C | 94% | 1015.8 hPa | 0 mm | - | - | - |
| 1787815036 | 22.78° C | 94% | 1015.7 hPa | 0 mm | - | - | - |
| 1787811737 | 20.56° C | 97% | 1016.2 hPa | 0 mm | - | - | - |
| 1787810836 | 20.56° C | 97% | 1016.4 hPa | 0 mm | - | - | - |
| 1787809937 | 20.56° C | 97% | 1016.5 hPa | 0 mm | - | - | - |
| 1787805736 | 21.11° C | 93% | 1016.9 hPa | 0 mm | - | - | - |
| 1787804835 | 21.11° C | 91% | 1016.9 hPa | 0 mm | - | - | - |
| 1787801835 | 22.22° C | 85% | 1016.7 hPa | 0 mm | - | - | - |
| 1787800936 | 22.22° C | 84% | 1016.7 hPa | 0 mm | - | - | - |
| 1787798536 | 22.78° C | 82% | 1016.6 hPa | 0 mm | - | - | - |
| 1787798234 | 22.78° C | 82% | 1016.6 hPa | 0 mm | - | - | - |
| 1787796436 | 23.33° C | 81% | 1016.8 hPa | 0 mm | - | - | - |
| 1787795535 | 23.33° C | 79% | 1016.7 hPa | 0 mm | - | - | - |
| 1787793135 | 23.89° C | 78% | 1016.6 hPa | 0 mm | - | - | - |
| 1787792535 | 23.89° C | 78% | 1016.5 hPa | 0 mm | - | - | - |
* Rain latest hour (hover to see other rain measurements)
** Current wind speed in m/s (hover to see current wind gust speed)